createdAt,value
2023-03-31T00:01:42.613Z,46.53
2023-03-31T00:04:13.285Z,46.21
2023-03-31T00:06:41.999Z,45.09
2023-03-31T00:09:14.114Z,45.89
2023-03-31T00:11:40.994Z,46.34
2023-03-31T00:14:08.416Z,46.01
2023-03-31T00:16:36.493Z,46.12
2023-03-31T00:19:04.051Z,46.26
2023-03-31T00:21:34.078Z,46.26
2023-03-31T00:24:09.185Z,46.46
2023-03-31T00:26:36.089Z,46.17
2023-03-31T00:29:04.115Z,45.95
2023-03-31T00:31:30.892Z,46.10
2023-03-31T00:33:57.947Z,46.05
2023-03-31T00:36:27.948Z,46.27
2023-03-31T00:38:56.382Z,46.48
2023-03-31T00:41:22.986Z,45.97
2023-03-31T00:44:18.708Z,45.98
2023-03-31T00:46:57.268Z,46.01
2023-03-31T00:49:23.707Z,46.13
2023-03-31T00:51:52.555Z,45.99
2023-03-31T00:54:19.678Z,46.16
2023-03-31T00:56:48.313Z,46.11
2023-03-31T00:59:15.454Z,46.04
2023-03-31T01:01:44.389Z,46.21
2023-03-31T01:04:11.769Z,45.98
2023-03-31T01:06:50.959Z,46.12
2023-03-31T01:09:17.475Z,46.40
2023-03-31T01:11:46.374Z,46.24
2023-03-31T01:14:13.123Z,46.50
2023-03-31T01:16:39.933Z,46.09
2023-03-31T01:19:16.098Z,46.32
2023-03-31T01:22:03.877Z,46.07
2023-03-31T01:24:40.172Z,46.79
2023-03-31T01:27:46.125Z,46.48
2023-03-31T01:30:37.064Z,46.41
2023-03-31T01:33:09.531Z,46.34
2023-03-31T01:35:51.522Z,46.52
2023-03-31T01:38:47.235Z,45.89
2023-03-31T01:41:26.287Z,46.32
2023-03-31T01:44:16.566Z,46.31
2023-03-31T01:46:56.803Z,46.05
2023-03-31T01:49:30.411Z,45.92
2023-03-31T01:52:19.328Z,46.06
2023-03-31T01:54:57.944Z,46.13
2023-03-31T01:57:40.910Z,46.14
2023-03-31T02:00:11.996Z,46.90
2023-03-31T02:02:51.489Z,47.18
2023-03-31T02:05:25.904Z,47.48
2023-03-31T02:07:55.891Z,47.52
2023-03-31T02:10:24.283Z,47.31
2023-03-31T02:12:51.613Z,47.09
2023-03-31T02:15:24.615Z,47.26
2023-03-31T02:17:55.180Z,47.07
2023-03-31T02:20:23.056Z,46.85
2023-03-31T02:22:55.664Z,47.13
2023-03-31T02:25:42.430Z,46.83
2023-03-31T02:28:12.073Z,46.79
2023-03-31T02:30:51.128Z,46.76
2023-03-31T02:33:18.092Z,47.07
2023-03-31T02:35:44.771Z,46.74
2023-03-31T02:38:11.790Z,46.94
2023-03-31T02:40:38.393Z,46.49
2023-03-31T02:43:05.112Z,46.79
2023-03-31T02:45:42.444Z,46.73
2023-03-31T02:48:36.539Z,46.57
2023-03-31T02:51:09.420Z,46.87
2023-03-31T02:53:53.011Z,46.23
2023-03-31T02:56:44.778Z,46.38
2023-03-31T02:59:29.362Z,46.48
2023-03-31T03:02:27.320Z,46.25
2023-03-31T03:05:09.196Z,46.41
2023-03-31T03:08:00.397Z,46.26
2023-03-31T03:10:41.007Z,46.53
2023-03-31T03:13:38.170Z,46.43
2023-03-31T03:16:35.839Z,46.98
2023-03-31T03:19:05.474Z,46.65
2023-03-31T03:21:32.452Z,46.89
2023-03-31T03:24:00.127Z,47.06
2023-03-31T03:26:28.222Z,46.86
2023-03-31T03:28:56.633Z,47.24
2023-03-31T03:31:24.180Z,47.39
2023-03-31T03:33:50.784Z,47.02
2023-03-31T03:36:17.626Z,47.36
2023-03-31T03:38:44.149Z,47.39
2023-03-31T03:41:10.810Z,47.21
2023-03-31T03:43:37.340Z,47.03
2023-03-31T03:46:04.283Z,47.27
2023-03-31T03:48:30.939Z,47.01
2023-03-31T03:51:00.548Z,47.18
2023-03-31T03:53:27.301Z,47.60
2023-03-31T03:55:53.935Z,47.31
2023-03-31T03:58:20.545Z,47.73
2023-03-31T04:00:47.429Z,47.59
2023-03-31T04:03:14.670Z,47.64
2023-03-31T04:05:41.388Z,47.28
2023-03-31T04:08:08.725Z,47.33
2023-03-31T04:10:36.010Z,47.27
2023-03-31T04:13:02.545Z,47.14
2023-03-31T04:15:29.078Z,47.17
2023-03-31T04:17:58.218Z,47.21
2023-03-31T04:20:27.961Z,47.26
2023-03-31T04:22:54.772Z,47.47
2023-03-31T04:25:22.778Z,47.91
2023-03-31T04:27:50.942Z,47.55
2023-03-31T04:30:23.677Z,47.76
2023-03-31T04:32:51.118Z,47.79
2023-03-31T04:35:18.849Z,47.80
2023-03-31T04:37:45.448Z,47.90
2023-03-31T04:40:12.092Z,47.70
2023-03-31T04:42:38.575Z,48.15
2023-03-31T04:45:05.476Z,47.99
2023-03-31T04:47:32.171Z,47.89
2023-03-31T04:49:58.719Z,47.98
2023-03-31T04:52:25.373Z,48.01
2023-03-31T04:54:51.878Z,47.90
2023-03-31T04:57:18.474Z,47.67
2023-03-31T04:59:45.072Z,47.99
2023-03-31T05:02:11.654Z,47.64
2023-03-31T05:04:38.217Z,47.95
2023-03-31T05:07:04.840Z,47.70
2023-03-31T05:09:32.623Z,47.95
2023-03-31T05:12:00.032Z,47.90
2023-03-31T05:14:26.587Z,47.69
2023-03-31T05:16:53.213Z,47.86
2023-03-31T05:19:19.787Z,47.73
2023-03-31T05:21:46.751Z,47.73
2023-03-31T05:24:13.743Z,47.97
2023-03-31T05:26:41.352Z,47.84
2023-03-31T05:29:07.894Z,47.71
2023-03-31T05:31:34.563Z,47.57
2023-03-31T05:34:01.204Z,47.28
2023-03-31T05:36:27.817Z,47.49
2023-03-31T05:38:54.421Z,46.96
2023-03-31T05:41:21.288Z,47.17
2023-03-31T05:43:47.952Z,46.72
2023-03-31T05:46:14.545Z,47.19
2023-03-31T05:48:41.341Z,46.75
2023-03-31T05:51:08.150Z,47.00
2023-03-31T05:53:35.309Z,46.89
2023-03-31T05:56:03.804Z,46.52
2023-03-31T05:58:31.002Z,45.42
2023-03-31T06:01:02.429Z,45.15
2023-03-31T06:03:29.062Z,45.60
2023-03-31T06:05:55.857Z,46.12
2023-03-31T06:08:22.393Z,45.89
2023-03-31T06:10:48.932Z,45.66
2023-03-31T06:13:15.570Z,45.45
2023-03-31T06:15:42.326Z,44.62
2023-03-31T06:18:10.693Z,42.40
2023-03-31T06:20:37.380Z,39.64
2023-03-31T06:23:03.908Z,38.26
2023-03-31T06:25:37.164Z,37.46
2023-03-31T06:28:10.608Z,36.33
2023-03-31T06:30:37.169Z,34.73
2023-03-31T06:33:03.927Z,32.20
2023-03-31T06:35:30.544Z,29.57
2023-03-31T06:37:57.483Z,27.39
2023-03-31T06:40:23.993Z,25.96
2023-03-31T06:42:50.581Z,24.22
2023-03-31T06:45:17.075Z,23.60
2023-03-31T06:47:43.607Z,22.74
2023-03-31T06:50:10.732Z,22.45
2023-03-31T06:52:37.406Z,23.93
2023-03-31T06:55:04.031Z,23.69
2023-03-31T06:57:33.354Z,24.50
2023-03-31T07:00:00.496Z,25.11
2023-03-31T07:02:27.109Z,23.91
2023-03-31T07:04:53.672Z,23.50
2023-03-31T07:07:20.256Z,23.13
2023-03-31T07:09:46.867Z,22.35
2023-03-31T07:12:13.455Z,21.96
2023-03-31T07:14:39.988Z,22.94
2023-03-31T07:17:06.750Z,24.51
2023-03-31T07:19:33.283Z,24.95
2023-03-31T07:21:59.879Z,24.54
2023-03-31T07:24:26.984Z,24.13
2023-03-31T07:26:53.549Z,23.60
2023-03-31T07:29:20.586Z,23.23
2023-03-31T07:31:47.778Z,22.43
2023-03-31T07:34:14.361Z,21.93
2023-03-31T07:36:41.202Z,24.03
2023-03-31T07:39:07.793Z,23.20
2023-03-31T07:41:34.337Z,23.28
2023-03-31T07:44:01.188Z,21.58
2023-03-31T07:46:29.373Z,21.05
2023-03-31T07:48:56.967Z,22.07
2023-03-31T07:51:25.938Z,22.59
2023-03-31T07:53:52.807Z,23.88
2023-03-31T07:56:21.244Z,25.02
2023-03-31T07:58:48.182Z,24.67
2023-03-31T08:01:19.078Z,25.64
2023-03-31T08:03:46.494Z,25.94
2023-03-31T08:06:18.341Z,27.85
2023-03-31T08:08:44.864Z,27.97
2023-03-31T08:11:11.450Z,28.12
2023-03-31T08:13:37.977Z,26.32
2023-03-31T08:16:04.962Z,26.36
2023-03-31T08:18:31.822Z,27.25
2023-03-31T08:20:58.353Z,27.81
2023-03-31T08:23:24.961Z,28.74
2023-03-31T08:25:51.760Z,28.72
2023-03-31T08:28:18.418Z,29.36
2023-03-31T08:30:44.984Z,29.44
2023-03-31T08:33:14.756Z,30.07
2023-03-31T08:35:41.329Z,31.17
2023-03-31T08:38:07.977Z,32.07
2023-03-31T08:40:34.767Z,32.22
2023-03-31T08:43:23.186Z,31.36
2023-03-31T08:45:49.914Z,32.00
2023-03-31T08:48:27.416Z,32.26
2023-03-31T08:50:58.701Z,31.83
2023-03-31T08:53:31.639Z,31.99
2023-03-31T08:55:58.921Z,32.78
2023-03-31T08:58:33.890Z,32.68
2023-03-31T09:01:21.678Z,31.76
2023-03-31T09:04:08.769Z,30.06
2023-03-31T09:06:40.166Z,29.58
2023-03-31T09:09:10.870Z,28.79
2023-03-31T09:11:51.352Z,25.50
2023-03-31T09:14:38.350Z,26.43
2023-03-31T09:17:25.449Z,26.85
2023-03-31T09:19:59.949Z,26.39
2023-03-31T09:22:35.909Z,26.72
2023-03-31T09:25:07.914Z,25.98
2023-03-31T09:27:37.283Z,25.45
2023-03-31T09:30:12.953Z,26.41
2023-03-31T09:32:39.919Z,28.00
2023-03-31T09:35:17.184Z,29.35
2023-03-31T09:37:43.839Z,30.60
2023-03-31T09:40:17.082Z,31.52
2023-03-31T09:42:43.841Z,31.46
2023-03-31T09:45:18.291Z,31.41
2023-03-31T09:47:48.583Z,32.59
2023-03-31T09:50:16.484Z,31.91
2023-03-31T09:52:46.398Z,31.31
2023-03-31T09:55:35.818Z,31.87
2023-03-31T09:58:07.629Z,32.88
2023-03-31T10:00:35.086Z,34.43
2023-03-31T10:03:07.532Z,35.37
2023-03-31T10:05:50.830Z,36.43
2023-03-31T10:08:17.281Z,37.20
2023-03-31T10:11:03.878Z,38.50
2023-03-31T10:13:40.626Z,38.17
2023-03-31T10:16:09.661Z,37.77
2023-03-31T10:18:39.797Z,37.28
2023-03-31T10:21:24.632Z,37.07
2023-03-31T10:23:51.744Z,36.31
2023-03-31T10:26:28.094Z,35.81
2023-03-31T10:28:55.541Z,35.85
2023-03-31T10:31:26.358Z,36.45
2023-03-31T10:33:53.292Z,36.43
2023-03-31T10:36:26.555Z,36.93
2023-03-31T10:38:53.717Z,38.10
2023-03-31T10:41:23.145Z,39.07
2023-03-31T10:43:54.549Z,40.65
2023-03-31T10:46:21.506Z,40.47
2023-03-31T10:48:48.071Z,40.83
2023-03-31T10:51:28.760Z,41.50
2023-03-31T10:53:56.481Z,42.14
2023-03-31T10:56:40.589Z,45.55
2023-03-31T10:59:22.218Z,43.83
2023-03-31T11:02:03.987Z,43.07
2023-03-31T11:04:52.020Z,42.69
2023-03-31T11:07:39.296Z,41.67
2023-03-31T11:10:23.434Z,40.99
2023-03-31T11:13:02.180Z,41.00
2023-03-31T11:15:42.502Z,39.37
2023-03-31T11:18:32.863Z,39.69
2023-03-31T11:21:31.309Z,38.90
2023-03-31T11:24:02.464Z,39.92
2023-03-31T11:27:04.775Z,38.54
2023-03-31T11:29:49.745Z,40.68
2023-03-31T11:32:48.684Z,39.91
2023-03-31T11:35:38.324Z,40.35
2023-03-31T11:38:24.720Z,40.30
2023-03-31T11:41:17.562Z,39.84
2023-03-31T11:43:52.632Z,40.17
2023-03-31T11:46:26.883Z,40.57
2023-03-31T11:48:59.188Z,44.51
2023-03-31T11:51:29.683Z,48.21
2023-03-31T11:53:57.745Z,47.74
2023-03-31T11:56:28.999Z,51.49
2023-03-31T11:58:58.052Z,48.48
2023-03-31T12:01:43.871Z,47.00
2023-03-31T12:04:26.965Z,44.54
2023-03-31T12:06:55.742Z,45.42
2023-03-31T12:09:50.235Z,43.79
2023-03-31T12:12:21.355Z,43.35
2023-03-31T12:15:07.029Z,42.34
2023-03-31T12:17:33.801Z,43.42
2023-03-31T12:20:10.765Z,42.12
2023-03-31T12:22:42.057Z,42.82
2023-03-31T12:25:15.733Z,41.81
2023-03-31T12:27:44.293Z,41.13
2023-03-31T12:30:15.024Z,42.08
2023-03-31T12:32:46.019Z,42.59
2023-03-31T12:35:15.521Z,42.55
2023-03-31T12:37:57.214Z,43.20
2023-03-31T12:40:39.147Z,45.54
2023-03-31T12:43:30.794Z,48.05
2023-03-31T12:46:18.712Z,50.62
2023-03-31T12:49:06.632Z,54.37
2023-03-31T12:51:40.684Z,55.94
2023-03-31T12:54:29.072Z,54.31
2023-03-31T12:57:01.870Z,55.71
2023-03-31T12:59:32.742Z,55.81
2023-03-31T13:02:18.808Z,57.89
2023-03-31T13:04:45.587Z,57.60
2023-03-31T13:07:29.177Z,60.21
2023-03-31T13:09:57.412Z,58.60
2023-03-31T13:12:25.956Z,58.57
2023-03-31T13:14:54.631Z,58.68
2023-03-31T13:17:25.544Z,57.67
2023-03-31T13:19:53.487Z,58.71
2023-03-31T13:22:37.522Z,61.07
2023-03-31T13:25:41.814Z,61.47
2023-03-31T13:28:13.807Z,60.93
2023-03-31T13:30:40.289Z,60.02
2023-03-31T13:33:12.444Z,62.06
2023-03-31T13:35:42.632Z,62.95
2023-03-31T13:38:36.802Z,64.95
2023-03-31T13:41:19.328Z,64.65
2023-03-31T13:44:21.160Z,63.70
2023-03-31T13:46:52.218Z,63.71
2023-03-31T13:49:41.656Z,65.03
2023-03-31T13:52:12.542Z,64.10
2023-03-31T13:55:03.170Z,65.37
2023-03-31T13:57:38.665Z,65.05
2023-03-31T14:00:43.584Z,64.43
2023-03-31T14:03:29.138Z,64.43
2023-03-31T14:06:06.713Z,64.05
2023-03-31T14:08:43.048Z,63.92
2023-03-31T14:11:16.385Z,64.04
2023-03-31T14:13:42.941Z,62.36
2023-03-31T14:16:10.303Z,62.62
2023-03-31T14:18:40.906Z,62.70
2023-03-31T14:21:24.879Z,62.42
2023-03-31T14:24:23.590Z,63.10
2023-03-31T14:27:18.741Z,62.15
2023-03-31T14:29:56.067Z,62.44
2023-03-31T14:32:50.803Z,61.56
2023-03-31T14:35:28.929Z,60.53
2023-03-31T14:37:56.437Z,58.69
2023-03-31T14:40:23.722Z,58.95
2023-03-31T14:42:50.759Z,58.18
2023-03-31T14:45:21.948Z,57.72
2023-03-31T14:48:14.984Z,57.08
2023-03-31T14:50:46.482Z,57.29
2023-03-31T14:53:17.621Z,57.89
2023-03-31T14:58:26.087Z,57.91
2023-03-31T15:00:53.357Z,57.60
2023-03-31T15:03:19.814Z,56.42
2023-03-31T15:05:47.583Z,56.78
2023-03-31T15:08:18.647Z,56.67
2023-03-31T15:10:58.852Z,56.39
2023-03-31T15:13:46.984Z,56.76
2023-03-31T15:16:38.031Z,56.96
2023-03-31T15:19:22.743Z,56.73
2023-03-31T15:22:02.065Z,56.25
2023-03-31T15:24:29.380Z,55.33
2023-03-31T15:27:03.821Z,55.57
2023-03-31T15:29:41.525Z,56.64
2023-03-31T15:32:14.254Z,56.29
2023-03-31T15:34:43.437Z,56.10
2023-03-31T15:37:10.134Z,56.29
2023-03-31T15:39:37.212Z,56.46
2023-03-31T15:42:06.208Z,56.08
2023-03-31T15:44:40.126Z,55.57
2023-03-31T15:47:21.392Z,55.17
2023-03-31T15:49:51.377Z,55.58
2023-03-31T15:52:36.121Z,56.25
2023-03-31T15:55:26.868Z,56.18
2023-03-31T15:57:54.907Z,56.16
2023-03-31T16:00:33.474Z,55.86
2023-03-31T16:03:01.830Z,55.63
2023-03-31T16:08:44.606Z,55.64
2023-03-31T16:11:13.853Z,55.26
2023-03-31T16:13:43.748Z,55.07
2023-03-31T16:16:13.124Z,55.27
2023-03-31T16:18:43.149Z,55.21
2023-03-31T16:21:09.955Z,54.94
2023-03-31T16:23:41.535Z,53.85
2023-03-31T16:26:08.691Z,54.91
2023-03-31T16:28:36.792Z,55.19
2023-03-31T16:31:05.351Z,54.79
2023-03-31T16:33:53.328Z,54.11
2023-03-31T16:36:19.837Z,54.57
2023-03-31T16:38:46.894Z,54.32
2023-03-31T16:41:15.824Z,54.41
2023-03-31T16:43:44.708Z,54.12
2023-03-31T16:46:11.353Z,53.79
2023-03-31T16:48:38.298Z,54.21
2023-03-31T16:51:05.037Z,53.66
2023-03-31T16:53:33.970Z,54.06
2023-03-31T16:56:00.635Z,53.86
2023-03-31T16:58:28.981Z,53.44
2023-03-31T17:00:57.008Z,53.21
2023-03-31T17:03:23.995Z,53.54
2023-03-31T17:05:53.188Z,53.16
2023-03-31T17:08:21.635Z,53.01
2023-03-31T17:10:58.084Z,52.72
2023-03-31T17:13:24.611Z,52.98
2023-03-31T17:18:37.838Z,52.91
2023-03-31T17:21:08.419Z,52.51
2023-03-31T17:23:36.247Z,52.55
2023-03-31T17:26:04.125Z,52.57
2023-03-31T17:28:31.300Z,52.74
2023-03-31T17:30:58.557Z,52.34
2023-03-31T17:33:25.777Z,52.88
2023-03-31T17:35:56.507Z,52.87
2023-03-31T17:38:23.055Z,52.64
2023-03-31T17:40:49.592Z,52.69
2023-03-31T17:43:16.518Z,52.96
2023-03-31T17:45:43.030Z,52.93
2023-03-31T17:48:09.980Z,52.46
2023-03-31T17:50:37.437Z,52.42
2023-03-31T17:53:08.894Z,52.80
2023-03-31T17:55:38.255Z,52.36
2023-03-31T17:58:06.372Z,52.53
2023-03-31T18:00:32.896Z,52.41
2023-03-31T18:02:59.736Z,53.20
2023-03-31T18:05:26.264Z,53.94
2023-03-31T18:07:53.625Z,53.45
2023-03-31T18:10:20.291Z,53.58
2023-03-31T18:12:46.881Z,53.68
2023-03-31T18:15:13.454Z,53.79
2023-03-31T18:17:40.090Z,53.54
2023-03-31T18:20:07.072Z,53.88
2023-03-31T18:22:33.578Z,53.60
2023-03-31T18:25:00.185Z,53.64
2023-03-31T18:27:27.227Z,53.46
2023-03-31T18:29:53.737Z,53.59
2023-03-31T18:32:20.707Z,53.95
2023-03-31T18:34:47.269Z,53.67
2023-03-31T18:37:13.800Z,53.86
2023-03-31T18:39:40.371Z,53.72
2023-03-31T18:42:06.879Z,53.87
2023-03-31T18:44:35.422Z,54.22
2023-03-31T18:47:02.373Z,53.78
2023-03-31T18:49:28.987Z,54.13
2023-03-31T18:51:56.368Z,53.94
2023-03-31T18:54:23.034Z,54.06
2023-03-31T18:56:49.561Z,53.84
2023-03-31T18:59:16.558Z,53.85
2023-03-31T19:01:43.243Z,54.05
2023-03-31T19:04:10.527Z,54.32
2023-03-31T19:06:37.420Z,54.22
2023-03-31T19:09:04.143Z,54.38
2023-03-31T19:11:30.651Z,54.35
2023-03-31T19:13:57.248Z,54.06
2023-03-31T19:16:27.413Z,54.43
2023-03-31T19:18:54.523Z,54.09
2023-03-31T19:21:21.908Z,54.04
2023-03-31T19:23:48.474Z,53.90
2023-03-31T19:26:16.501Z,53.80
2023-03-31T19:28:42.993Z,54.19
2023-03-31T19:31:10.417Z,54.09
2023-03-31T19:33:36.908Z,54.18
2023-03-31T19:36:04.025Z,54.10
2023-03-31T19:38:32.589Z,54.34
2023-03-31T19:41:00.023Z,54.43
2023-03-31T19:43:27.228Z,54.69
2023-03-31T19:45:57.464Z,53.99
2023-03-31T19:48:26.485Z,54.47
2023-03-31T19:50:59.364Z,54.39
2023-03-31T19:53:26.719Z,54.55
2023-03-31T19:56:02.034Z,54.70
2023-03-31T19:58:30.118Z,54.38
2023-03-31T20:00:57.550Z,54.17
2023-03-31T20:03:25.238Z,54.20
2023-03-31T20:05:53.718Z,54.36
2023-03-31T20:08:20.304Z,54.61
2023-03-31T20:10:46.863Z,54.21
2023-03-31T20:13:13.442Z,54.87
2023-03-31T20:15:41.215Z,54.34
2023-03-31T20:18:07.849Z,53.51
2023-03-31T20:20:34.493Z,54.22
2023-03-31T20:23:01.099Z,54.04
2023-03-31T20:25:27.682Z,54.90
2023-03-31T20:27:54.278Z,54.61
2023-03-31T20:30:21.171Z,54.80
2023-03-31T20:32:47.806Z,54.79
2023-03-31T20:35:14.420Z,54.60
2023-03-31T20:37:40.912Z,54.26
2023-03-31T20:40:07.889Z,53.96
2023-03-31T20:42:35.880Z,54.82
2023-03-31T20:45:02.372Z,54.60
2023-03-31T20:47:29.535Z,54.76
2023-03-31T20:49:56.045Z,54.84
2023-03-31T20:52:23.044Z,54.92
2023-03-31T20:54:49.520Z,55.22
2023-03-31T20:57:16.042Z,55.50
2023-03-31T20:59:42.884Z,55.18
2023-03-31T21:02:12.308Z,54.91
2023-03-31T21:04:38.804Z,54.95
2023-03-31T21:07:05.334Z,54.80
2023-03-31T21:09:32.985Z,55.03
2023-03-31T21:12:00.910Z,55.44
2023-03-31T21:14:27.422Z,55.64
2023-03-31T21:16:54.016Z,55.39
2023-03-31T21:19:20.625Z,54.97
2023-03-31T21:21:47.087Z,55.30
2023-03-31T21:24:13.783Z,55.44
2023-03-31T21:26:40.429Z,56.11
2023-03-31T21:29:06.983Z,56.23
2023-03-31T21:31:33.499Z,55.94
2023-03-31T21:34:02.411Z,56.09
2023-03-31T21:36:29.240Z,56.01
2023-03-31T21:38:57.357Z,56.38
2023-03-31T21:41:30.003Z,56.08
2023-03-31T21:43:56.922Z,55.75
2023-03-31T21:46:27.331Z,56.07
2023-03-31T21:48:54.402Z,56.22
2023-03-31T21:51:22.146Z,56.33
2023-03-31T21:53:49.643Z,56.44
2023-03-31T21:56:16.511Z,56.01
2023-03-31T21:58:43.068Z,56.34
2023-03-31T22:01:09.584Z,56.36
2023-03-31T22:03:36.664Z,57.11
2023-03-31T22:06:06.852Z,56.62
2023-03-31T22:08:34.391Z,56.89
2023-03-31T22:11:01.136Z,56.84
2023-03-31T22:13:28.958Z,56.40
2023-03-31T22:15:56.242Z,56.64
2023-03-31T22:18:23.191Z,56.83
2023-03-31T22:20:49.799Z,56.90
2023-03-31T22:23:17.160Z,56.76
2023-03-31T22:25:43.747Z,56.57
2023-03-31T22:28:10.334Z,56.11
2023-03-31T22:30:37.001Z,56.29
2023-03-31T22:33:03.692Z,56.62
2023-03-31T22:35:30.520Z,57.03
2023-03-31T22:37:57.150Z,57.13
2023-03-31T22:40:23.947Z,56.98
2023-03-31T22:42:50.498Z,57.35
2023-03-31T22:45:17.031Z,56.75
2023-03-31T22:47:43.538Z,57.25
2023-03-31T22:50:11.176Z,57.17
2023-03-31T22:52:37.794Z,57.43
2023-03-31T22:55:04.796Z,57.10
2023-03-31T22:57:32.098Z,57.03
2023-03-31T22:59:58.670Z,57.33
2023-03-31T23:02:25.468Z,57.59
2023-03-31T23:04:52.083Z,57.27
2023-03-31T23:07:21.770Z,57.38
2023-03-31T23:09:48.530Z,57.00
2023-03-31T23:12:14.998Z,57.15
2023-03-31T23:14:41.494Z,57.43
2023-03-31T23:17:08.223Z,56.99
2023-03-31T23:19:34.720Z,57.12
2023-03-31T23:22:02.510Z,57.93
2023-03-31T23:24:29.936Z,57.07
2023-03-31T23:26:56.408Z,57.42
2023-03-31T23:29:23.062Z,57.26
2023-03-31T23:31:49.617Z,56.78
2023-03-31T23:34:16.407Z,56.62
2023-03-31T23:36:43.053Z,56.16
2023-03-31T23:39:10.560Z,56.03
2023-03-31T23:41:37.058Z,55.99
2023-03-31T23:44:04.065Z,55.98
2023-03-31T23:46:31.879Z,55.78
2023-03-31T23:48:58.810Z,55.65
2023-03-31T23:51:25.614Z,55.60
2023-03-31T23:53:52.159Z,55.97
2023-03-31T23:56:18.662Z,55.92
2023-03-31T23:58:45.282Z,56.08
